Time;durP1;ratioP1;P1;durP2;ratioP2;P2;SDS_P1;SDS_P2;PMS_P1;PMS_P2;Temp;Humidity;BMP_temperature;BMP_pressure;BME280_temperature;BME280_humidity;BME280_pressure;Samples;Min_cycle;Max_cycle;Signal;HPM_P1;HPM_P2
2023/08/12 00:01:40;;;;;;;6.03;5.53;;;24.50;51.70;;;;;;20532;6837;306990;-71
2023/08/12 00:04:05;;;;;;;5.33;4.97;;;24.70;51.90;;;;;;20727;6839;119181;-71
2023/08/12 00:06:31;;;;;;;5.90;5.30;;;24.50;51.70;;;;;;20520;6839;307950;-71
2023/08/12 00:08:56;;;;;;;5.63;5.30;;;24.70;51.90;;;;;;20724;6834;119465;-71
2023/08/12 00:11:22;;;;;;;5.63;5.10;;;24.60;51.80;;;;;;20750;6834;123088;-71
2023/08/12 00:13:47;;;;;;;6.37;5.12;;;24.30;52.00;;;;;;20518;6839;307674;-71
2023/08/12 00:16:13;;;;;;;5.73;5.43;;;24.50;52.30;;;;;;20732;6839;117072;-71
2023/08/12 00:18:39;;;;;;;6.22;5.40;;;24.40;52.10;;;;;;20523;6839;279193;-71
2023/08/12 00:21:09;;;;;;;5.63;5.17;;;24.50;52.10;;;;;;20705;6839;117482;-71
2023/08/12 00:23:34;;;;;;;6.00;5.50;;;24.20;52.40;;;;;;20724;6839;117091;-71
2023/08/12 00:25:59;;;;;;;4.77;4.37;;;24.20;52.30;;;;;;20728;6834;117553;-71
2023/08/12 00:28:25;;;;;;;6.70;5.30;;;24.00;52.60;;;;;;20733;6839;117062;-71
2023/08/12 00:30:50;;;;;;;5.80;5.40;;;23.80;52.90;;;;;;20512;6835;308956;-71
2023/08/12 00:33:18;;;;;;;6.00;5.43;;;24.00;52.80;;;;;;20759;6835;120324;-71
2023/08/12 00:35:42;;;;;;;6.23;5.57;;;24.00;52.80;;;;;;20748;6835;122847;-71
2023/08/12 00:38:08;;;;;;;6.43;5.60;;;23.80;52.90;;;;;;20522;6839;335088;-71
2023/08/12 00:40:33;;;;;;;5.67;5.37;;;23.90;53.20;;;;;;20729;6839;117148;-71
2023/08/12 00:42:59;;;;;;;5.90;5.53;;;23.90;53.00;;;;;;20500;6839;278069;-71
2023/08/12 00:45:24;;;;;;;7.22;6.53;;;24.00;53.10;;;;;;20535;6835;336461;-71
2023/08/12 00:47:50;;;;;;;6.07;5.53;;;24.20;52.60;;;;;;20523;6839;289377;-71
2023/08/12 00:50:16;;;;;;;6.05;5.50;;;24.40;52.30;;;;;;20535;6835;308816;-71
2023/08/12 00:52:41;;;;;;;5.50;5.10;;;24.50;52.00;;;;;;20520;6839;288253;-71
2023/08/12 00:55:08;;;;;;;6.33;5.77;;;24.80;51.70;;;;;;20515;6835;311875;-71
2023/08/12 00:57:33;;;;;;;6.00;5.40;;;24.70;51.60;;;;;;20747;6835;117063;-71
2023/08/12 00:59:59;;;;;;;6.22;5.70;;;24.50;51.80;;;;;;20520;6839;338479;-71
2023/08/12 01:02:24;;;;;;;5.97;4.83;;;24.40;51.90;;;;;;20750;6833;117408;-71
2023/08/12 01:04:50;;;;;;;6.40;5.82;;;24.20;52.10;;;;;;20505;6839;308108;-71
2023/08/12 01:07:16;;;;;;;6.93;5.60;;;24.30;52.50;;;;;;20725;6839;117358;-71
2023/08/12 01:09:41;;;;;;;5.97;5.57;;;24.10;52.50;;;;;;20524;6839;277543;-71
2023/08/12 01:12:07;;;;;;;5.97;5.50;;;24.20;52.60;;;;;;20744;6839;119823;-70
2023/08/12 01:14:36;;;;;;;6.03;5.53;;;24.10;52.70;;;;;;20489;6839;310406;-71
2023/08/12 01:17:03;;;;;;;5.70;5.20;;;24.00;52.70;;;;;;20693;6839;145160;-71
2023/08/12 01:19:34;;;;;;;6.17;5.67;;;24.00;52.70;;;;;;20462;6854;278587;-71
2023/08/12 01:22:00;;;;;;;6.07;5.23;;;24.10;52.90;;;;;;20720;6839;123049;-71
2023/08/12 01:24:25;;;;;;;6.45;5.82;;;23.90;52.90;;;;;;20517;6839;337431;-72
2023/08/12 01:26:50;;;;;;;5.80;5.20;;;24.00;53.10;;;;;;20715;6839;123017;-72
2023/08/12 01:29:16;;;;;;;6.35;5.87;;;23.90;53.10;;;;;;20511;6839;313211;-71
2023/08/12 01:31:45;;;;;;;6.65;6.03;;;24.10;52.90;;;;;;20467;6854;289122;-71
2023/08/12 01:34:14;;;;;;;6.60;6.00;;;24.10;52.90;;;;;;20507;6839;307505;-71
2023/08/12 01:36:40;;;;;;;6.40;6.00;;;24.30;52.70;;;;;;20523;6834;306644;-71
2023/08/12 01:39:05;;;;;;;6.10;5.65;;;24.40;52.30;;;;;;20703;6839;119575;-71
2023/08/12 01:41:31;;;;;;;5.87;5.57;;;24.20;52.50;;;;;;20747;6835;119244;-71
2023/08/12 01:43:56;;;;;;;6.93;6.43;;;23.80;53.00;;;;;;20520;6839;282697;-71
2023/08/12 01:46:22;;;;;;;6.43;5.82;;;23.80;53.20;;;;;;20747;6835;119221;-71
2023/08/12 01:48:47;;;;;;;6.20;5.80;;;23.70;53.20;;;;;;20491;6839;308044;-72
2023/08/12 01:51:13;;;;;;;5.73;5.43;;;23.80;53.40;;;;;;20728;6839;117346;-71
2023/08/12 01:53:38;;;;;;;5.80;5.30;;;23.70;53.40;;;;;;20506;6839;281050;-71
2023/08/12 01:56:05;;;;;;;6.87;5.18;;;23.70;53.40;;;;;;20686;6854;119437;-71
2023/08/12 01:58:32;;;;;;;5.97;5.53;;;23.60;53.30;;;;;;20517;6839;307592;-71
2023/08/12 02:00:58;;;;;;;6.20;5.60;;;23.70;53.30;;;;;;20728;6835;117095;-71
2023/08/12 02:03:24;;;;;;;5.90;5.53;;;23.70;53.30;;;;;;20750;6835;121713;-71
2023/08/12 02:05:49;;;;;;;6.85;6.00;;;23.50;53.60;;;;;;20513;6839;336208;-71
2023/08/12 02:08:15;;;;;;;5.53;5.23;;;23.60;53.80;;;;;;20738;6839;122946;-71
2023/08/12 02:10:40;;;;;;;6.03;5.62;;;23.60;53.80;;;;;;20511;6839;308463;-71
2023/08/12 02:13:06;;;;;;;5.93;5.43;;;23.70;53.90;;;;;;20515;6833;310600;-71
2023/08/12 02:15:32;;;;;;;6.30;5.80;;;24.00;53.50;;;;;;20511;6839;338646;-71
2023/08/12 02:17:58;;;;;;;6.50;5.90;;;24.30;52.90;;;;;;20516;6839;310658;-71
2023/08/12 02:20:23;;;;;;;6.87;5.60;;;24.50;52.50;;;;;;20722;6839;119677;-71
2023/08/12 02:22:48;;;;;;;5.73;4.90;;;24.30;52.60;;;;;;20701;6839;117242;-71
2023/08/12 02:25:14;;;;;;;6.57;5.80;;;24.00;53.00;;;;;;20517;6839;311618;-71
2023/08/12 02:27:39;;;;;;;6.07;5.60;;;24.00;53.30;;;;;;20728;6839;122980;-72
2023/08/12 02:30:05;;;;;;;6.67;5.10;;;23.90;53.30;;;;;;20731;6839;117451;-71
2023/08/12 02:32:31;;;;;;;5.80;5.40;;;23.70;53.50;;;;;;20721;6839;119636;-71
2023/08/12 02:34:56;;;;;;;6.17;5.70;;;23.50;53.80;;;;;;20517;6834;307052;-71
2023/08/12 02:37:22;;;;;;;6.33;5.30;;;23.70;54.00;;;;;;20730;6839;119921;-71
2023/08/12 02:39:47;;;;;;;6.00;5.60;;;23.60;53.80;;;;;;20470;6854;308105;-71
2023/08/12 02:42:13;;;;;;;6.43;5.97;;;23.80;53.60;;;;;;20525;6839;317690;-71
2023/08/12 02:44:39;;;;;;;5.80;5.27;;;24.10;53.10;;;;;;20735;6839;117554;-71
2023/08/12 02:50:30;;;;;;;6.13;5.53;;;24.10;53.10;;;;;;20724;6839;120923;-71
2023/08/12 02:52:56;;;;;;;6.27;5.63;;;23.80;53.20;;;;;;20677;6854;145898;-71
2023/08/12 02:55:21;;;;;;;6.25;5.75;;;23.60;53.60;;;;;;20735;6839;120397;-71
2023/08/12 02:57:48;;;;;;;6.82;5.95;;;23.40;53.90;;;;;;20540;6837;277866;-71
2023/08/12 03:00:15;;;;;;;6.03;5.63;;;23.50;53.70;;;;;;20731;6839;117140;-71
2023/08/12 03:02:44;;;;;;;5.90;5.50;;;23.50;54.00;;;;;;20735;6839;117543;-71
2023/08/12 03:05:10;;;;;;;5.70;5.30;;;23.40;54.20;;;;;;20711;6839;117177;-71
2023/08/12 03:07:35;;;;;;;5.63;5.33;;;23.20;54.30;;;;;;20727;6839;117229;-71
2023/08/12 03:10:00;;;;;;;6.00;5.60;;;23.10;54.50;;;;;;20517;6839;294731;-71
2023/08/12 03:12:26;;;;;;;6.33;5.73;;;23.30;54.50;;;;;;20473;6854;279693;-71
2023/08/12 03:14:51;;;;;;;5.97;5.55;;;23.80;53.60;;;;;;20500;6839;278382;-71
2023/08/12 03:17:17;;;;;;;5.85;5.45;;;24.10;53.00;;;;;;20513;6839;312674;-71
2023/08/12 03:19:43;;;;;;;6.30;5.80;;;24.30;52.50;;;;;;20514;6839;314690;-71
2023/08/12 03:22:08;;;;;;;5.67;5.03;;;24.50;52.10;;;;;;20714;6839;117187;-71
2023/08/12 03:24:34;;;;;;;6.40;5.87;;;24.30;52.30;;;;;;20536;6833;278017;-71
2023/08/12 03:27:01;;;;;;;6.30;5.80;;;24.50;51.90;;;;;;20503;6839;340954;-71
2023/08/12 03:29:27;;;;;;;6.40;5.90;;;24.50;51.90;;;;;;20468;6854;308077;-71
2023/08/12 03:31:53;;;;;;;6.07;5.77;;;24.30;51.90;;;;;;20733;6839;119806;-71
2023/08/12 03:34:19;;;;;;;5.87;5.47;;;24.30;51.90;;;;;;20731;6839;117039;-71
2023/08/12 03:36:46;;;;;;;6.83;5.67;;;23.90;52.40;;;;;;20735;6839;119792;-71
2023/08/12 03:39:10;;;;;;;6.85;6.25;;;23.60;53.00;;;;;;20500;6839;278729;-71
2023/08/12 03:41:35;;;;;;;7.00;6.30;;;23.60;53.80;;;;;;20515;6839;322384;-71
2023/08/12 03:44:01;;;;;;;7.03;5.63;;;23.80;53.40;;;;;;20718;6839;122921;-71
2023/08/12 03:46:26;;;;;;;6.32;5.87;;;23.70;53.50;;;;;;20533;6834;279974;-71
2023/08/12 03:48:52;;;;;;;6.00;5.70;;;23.80;53.70;;;;;;20501;6839;293968;-71
2023/08/12 03:51:18;;;;;;;6.70;6.20;;;24.00;53.30;;;;;;20533;6834;277919;-70
2023/08/12 03:53:43;;;;;;;6.20;5.70;;;24.30;53.00;;;;;;20538;6834;277104;-72
2023/08/12 03:56:09;;;;;;;5.43;4.93;;;24.20;53.20;;;;;;20725;6839;122180;-71
2023/08/12 03:58:35;;;;;;;8.73;5.80;;;24.20;52.60;;;;;;20475;6854;278984;-71
2023/08/12 04:01:01;;;;;;;6.20;5.72;;;24.20;52.70;;;;;;20497;6839;278059;-71
2023/08/12 04:03:26;;;;;;;5.53;5.10;;;24.40;53.10;;;;;;20727;6839;119440;-71
2023/08/12 04:05:52;;;;;;;7.20;5.70;;;24.20;52.80;;;;;;20500;6845;277825;-71
2023/08/12 04:08:17;;;;;;;6.20;5.60;;;24.20;53.30;;;;;;20534;6835;311178;-71
2023/08/12 04:10:47;;;;;;;6.43;5.67;;;24.30;52.90;;;;;;20525;6835;278200;-71
2023/08/12 04:13:13;;;;;;;6.40;5.80;;;24.40;52.40;;;;;;20513;6839;335506;-71
2023/08/12 04:15:39;;;;;;;5.57;5.28;;;24.40;52.30;;;;;;20748;6835;117446;-71
2023/08/12 04:18:05;;;;;;;5.60;5.12;;;23.70;53.20;;;;;;20730;6839;117187;-70
2023/08/12 04:20:31;;;;;;;6.53;6.03;;;23.70;53.20;;;;;;20517;6839;294021;-71
2023/08/12 04:22:57;;;;;;;5.93;5.53;;;23.60;54.30;;;;;;20710;6839;146996;-71
2023/08/12 04:25:22;;;;;;;6.47;5.95;;;23.60;54.10;;;;;;20515;6839;307899;-71
2023/08/12 04:27:49;;;;;;;5.70;5.30;;;23.60;53.90;;;;;;20727;6839;117009;-71
2023/08/12 04:30:16;;;;;;;6.20;5.70;;;23.20;54.20;;;;;;20725;6839;123004;-71
2023/08/12 04:32:42;;;;;;;5.77;5.37;;;23.00;54.60;;;;;;20746;6835;119687;-71
2023/08/12 04:35:08;;;;;;;6.17;5.77;;;23.00;54.60;;;;;;20703;6839;118164;-71
2023/08/12 04:37:33;;;;;;;5.90;5.60;;;22.80;54.90;;;;;;20686;6853;119411;-71
2023/08/12 04:39:59;;;;;;;5.83;5.43;;;22.60;55.20;;;;;;20723;6839;117109;-71
2023/08/12 04:42:25;;;;;;;6.57;6.03;;;22.80;55.80;;;;;;20520;6839;307989;-71
2023/08/12 04:44:51;;;;;;;7.27;6.43;;;22.80;55.80;;;;;;20446;6854;287678;-71
2023/08/12 04:47:16;;;;;;;6.23;5.83;;;23.10;55.30;;;;;;20729;6839;117707;-71
2023/08/12 04:49:42;;;;;;;6.07;5.75;;;23.10;55.10;;;;;;20712;6845;117104;-71
2023/08/12 04:52:08;;;;;;;6.82;6.32;;;22.90;55.30;;;;;;20531;6834;295822;-71
2023/08/12 04:54:33;;;;;;;6.85;6.25;;;23.00;55.10;;;;;;20536;6834;307086;-71
2023/08/12 04:56:59;;;;;;;6.00;5.50;;;23.20;54.50;;;;;;20718;6839;119272;-71
2023/08/12 04:59:25;;;;;;;6.95;6.50;;;23.20;54.50;;;;;;20478;6854;277980;-71
2023/08/12 05:01:51;;;;;;;7.32;6.72;;;23.30;54.90;;;;;;20522;6839;309896;-70
2023/08/12 05:04:16;;;;;;;6.33;5.60;;;23.50;54.30;;;;;;20690;6854;119485;-71
2023/08/12 05:06:42;;;;;;;6.07;5.70;;;23.40;54.30;;;;;;20721;6839;120190;-71
2023/08/12 05:09:08;;;;;;;5.70;5.20;;;23.10;54.70;;;;;;20702;6839;119459;-71
2023/08/12 05:11:33;;;;;;;5.80;5.40;;;23.00;55.20;;;;;;20726;6839;120642;-71
2023/08/12 05:13:58;;;;;;;5.93;5.62;;;22.80;55.60;;;;;;20678;6854;122970;-71
2023/08/12 05:16:25;;;;;;;5.47;5.17;;;22.60;56.50;;;;;;20720;6839;117481;-71
2023/08/12 05:18:50;;;;;;;6.62;6.00;;;22.60;56.60;;;;;;20509;6835;337328;-71
2023/08/12 05:21:16;;;;;;;6.90;6.40;;;22.90;57.20;;;;;;20461;6854;340404;-71
2023/08/12 05:23:41;;;;;;;6.13;5.70;;;23.30;56.30;;;;;;20732;6839;117526;-71
2023/08/12 05:26:07;;;;;;;6.78;6.28;;;23.40;55.90;;;;;;20510;6839;311627;-71
2023/08/12 05:28:32;;;;;;;6.30;5.85;;;23.50;55.60;;;;;;20731;6839;120754;-71
2023/08/12 05:30:58;;;;;;;6.60;6.20;;;23.50;55.30;;;;;;20445;6854;309014;-71
2023/08/12 05:33:24;;;;;;;5.93;5.40;;;23.70;54.90;;;;;;20717;6839;117815;-71
2023/08/12 05:35:49;;;;;;;6.50;6.03;;;23.70;55.50;;;;;;20517;6839;282650;-71
2023/08/12 05:38:15;;;;;;;6.45;5.85;;;23.80;54.80;;;;;;20525;6839;278443;-71
2023/08/12 05:40:40;;;;;;;6.22;5.70;;;24.10;54.60;;;;;;20538;6835;284061;-71
2023/08/12 05:43:06;;;;;;;5.50;5.20;;;24.40;54.10;;;;;;20709;6839;119166;-71
2023/08/12 05:45:31;;;;;;;6.47;6.00;;;24.20;54.10;;;;;;20539;6835;306767;-71
2023/08/12 05:47:58;;;;;;;6.10;5.53;;;24.30;54.10;;;;;;20729;6838;117018;-71
2023/08/12 05:50:23;;;;;;;6.18;5.68;;;24.20;54.00;;;;;;20537;6834;278378;-71
2023/08/12 05:52:49;;;;;;;6.67;6.07;;;24.40;54.00;;;;;;20520;6839;305631;-71
2023/08/12 05:55:14;;;;;;;6.43;5.83;;;24.70;54.10;;;;;;20535;6834;332718;-71
2023/08/12 05:57:41;;;;;;;6.10;5.67;;;24.80;53.70;;;;;;20728;6839;117079;-71
2023/08/12 06:00:07;;;;;;;6.45;5.70;;;24.70;53.60;;;;;;20530;6839;337925;-71
2023/08/12 06:02:33;;;;;;;5.47;5.17;;;24.80;53.60;;;;;;20700;6854;120053;-71
2023/08/12 06:04:58;;;;;;;5.53;5.03;;;24.70;53.50;;;;;;20719;6839;122515;-71
2023/08/12 06:07:25;;;;;;;6.40;5.90;;;24.70;53.00;;;;;;20516;6839;336978;-71
2023/08/12 06:09:50;;;;;;;5.90;5.40;;;24.60;52.90;;;;;;20723;6839;119565;-71
2023/08/12 06:12:16;;;;;;;5.70;5.30;;;24.70;53.10;;;;;;20474;6854;281420;-71
2023/08/12 06:14:41;;;;;;;6.20;5.70;;;24.90;52.70;;;;;;20683;6854;123583;-71
2023/08/12 06:17:08;;;;;;;5.03;4.57;;;24.90;53.00;;;;;;20705;6839;122797;-68
2023/08/12 06:19:33;;;;;;;5.90;5.30;;;24.80;52.90;;;;;;20713;6839;117653;-71
2023/08/12 06:21:59;;;;;;;5.40;5.00;;;24.80;53.20;;;;;;20676;6854;119814;-71
2023/08/12 06:24:24;;;;;;;5.95;5.50;;;24.80;53.30;;;;;;20514;6839;308447;-71
2023/08/12 06:26:50;;;;;;;5.10;4.80;;;25.10;52.40;;;;;;20666;6854;117351;-71
2023/08/12 06:29:15;;;;;;;6.63;4.80;;;25.30;52.40;;;;;;20684;6854;119547;-71
2023/08/12 06:31:41;;;;;;;5.70;5.30;;;25.20;52.40;;;;;;20521;6839;307334;-71
2023/08/12 06:34:07;;;;;;;5.60;5.20;;;25.50;52.00;;;;;;20513;6839;307501;-71
2023/08/12 06:36:32;;;;;;;5.78;5.15;;;25.80;50.90;;;;;;20686;6854;117903;-71
2023/08/12 06:38:58;;;;;;;5.70;5.03;;;26.00;51.20;;;;;;20702;6839;120272;-71
2023/08/12 06:41:23;;;;;;;4.68;4.18;;;25.80;51.60;;;;;;20686;6854;119149;-71
2023/08/12 06:43:49;;;;;;;5.35;4.95;;;25.80;51.80;;;;;;20519;6839;282630;-71
2023/08/12 06:46:14;;;;;;;5.33;5.00;;;26.10;51.00;;;;;;20481;6854;281500;-71
2023/08/12 06:48:40;;;;;;;5.43;5.00;;;26.70;49.60;;;;;;20524;6839;331772;-71
2023/08/12 06:51:10;;;;;;;5.70;4.70;;;27.20;48.90;;;;;;20706;6839;119226;-71
2023/08/12 06:53:31;;;;;;;5.85;5.45;;;27.30;48.90;;;;;;20507;6839;298410;-71
2023/08/12 06:55:57;;;;;;;5.57;5.07;;;27.40;48.20;;;;;;20523;6839;282603;-71
2023/08/12 06:58:22;;;;;;;5.20;4.70;;;27.60;47.80;;;;;;20513;6835;340142;-71
2023/08/12 07:00:48;;;;;;;7.23;5.20;;;27.80;47.60;;;;;;20722;6836;119167;-71
2023/08/12 07:03:13;;;;;;;4.97;4.67;;;27.50;48.00;;;;;;20521;6839;307584;-71
2023/08/12 07:05:39;;;;;;;5.10;4.70;;;27.40;47.60;;;;;;20535;6834;311503;-71
2023/08/12 07:08:05;;;;;;;5.00;4.70;;;27.50;47.80;;;;;;20733;6839;116824;-71
2023/08/12 07:10:30;;;;;;;5.73;4.90;;;27.30;48.30;;;;;;20522;6839;307535;-71
2023/08/12 07:12:56;;;;;;;5.10;4.43;;;27.20;48.70;;;;;;20517;6834;336518;-71
2023/08/12 07:15:21;;;;;;;4.83;4.40;;;27.50;48.50;;;;;;20745;6834;119860;-71
2023/08/12 07:17:47;;;;;;;4.80;4.50;;;27.50;48.70;;;;;;20521;6839;307520;-71
2023/08/12 07:20:12;;;;;;;4.07;3.87;;;27.80;47.10;;;;;;20690;6854;117318;-71
2023/08/12 07:22:38;;;;;;;4.53;4.23;;;27.80;47.40;;;;;;20518;6839;283980;-71
2023/08/12 07:25:05;;;;;;;4.70;4.40;;;28.60;46.50;;;;;;20509;6834;307086;-71
2023/08/12 07:27:30;;;;;;;4.60;4.20;;;28.50;46.40;;;;;;20529;6834;307027;-71
2023/08/12 07:29:56;;;;;;;4.57;4.18;;;29.10;45.90;;;;;;20533;6834;331106;-71
2023/08/12 07:32:21;;;;;;;5.47;4.30;;;29.50;43.70;;;;;;20743;6834;120660;-71
2023/08/12 07:34:47;;;;;;;4.65;4.25;;;29.50;44.50;;;;;;20399;6836;278035;-71
2023/08/12 07:37:12;;;;;;;5.12;4.40;;;29.70;44.00;;;;;;20507;6845;278908;-71
2023/08/12 07:39:38;;;;;;;4.47;4.17;;;30.00;44.50;;;;;;20496;6846;307260;-71
2023/08/12 07:42:04;;;;;;;3.87;3.50;;;30.30;43.90;;;;;;20703;6846;123113;-71
2023/08/12 07:44:30;;;;;;;4.43;4.13;;;30.30;44.50;;;;;;20772;6827;119668;-71
2023/08/12 07:46:55;;;;;;;5.47;4.00;;;30.10;43.80;;;;;;20536;6827;306237;-71
2023/08/12 07:49:21;;;;;;;4.27;3.97;;;30.30;43.40;;;;;;20568;6827;278143;-71
2023/08/12 07:51:47;;;;;;;4.53;4.12;;;30.60;42.80;;;;;;20556;6827;277491;-71
2023/08/12 07:54:12;;;;;;;5.35;4.15;;;31.00;42.10;;;;;;20540;6827;307311;-71
2023/08/12 07:56:38;;;;;;;5.90;4.20;;;31.40;41.40;;;;;;20558;6827;282414;-71
2023/08/12 07:59:03;;;;;;;5.07;3.90;;;31.60;40.30;;;;;;20528;6827;307510;-71
2023/08/12 08:01:30;;;;;;;5.57;3.80;;;31.80;39.40;;;;;;20751;6822;120250;-71
2023/08/12 08:03:56;;;;;;;4.20;3.80;;;31.80;40.30;;;;;;20748;6822;123291;-71
2023/08/12 08:06:23;;;;;;;4.90;4.07;;;31.80;40.00;;;;;;20539;6822;293455;-71
2023/08/12 08:08:48;;;;;;;4.20;3.80;;;31.80;40.60;;;;;;20724;6822;120317;-71
2023/08/12 08:11:14;;;;;;;4.93;3.80;;;31.90;40.70;;;;;;20763;6821;117195;-71
2023/08/12 08:13:40;;;;;;;4.10;3.90;;;31.90;40.70;;;;;;20786;6822;117036;-72
2023/08/12 08:16:05;;;;;;;4.20;3.80;;;31.80;40.80;;;;;;20564;6822;306466;-71
2023/08/12 08:18:31;;;;;;;3.77;3.67;;;32.00;39.20;;;;;;20791;6822;119510;-71
2023/08/12 08:20:56;;;;;;;4.13;3.93;;;32.10;39.60;;;;;;20760;6822;121623;-72
2023/08/12 08:23:22;;;;;;;4.45;4.05;;;31.90;40.10;;;;;;20577;6822;301624;-71
2023/08/12 08:25:47;;;;;;;4.97;3.90;;;32.00;40.60;;;;;;20774;6822;117126;-71
2023/08/12 08:28:13;;;;;;;4.27;3.87;;;32.10;41.50;;;;;;20780;6822;117014;-71
2023/08/12 08:30:38;;;;;;;4.20;3.80;;;31.90;40.70;;;;;;20773;6822;117074;-71
2023/08/12 08:33:04;;;;;;;3.90;3.67;;;31.70;40.90;;;;;;20753;6822;119744;-72
2023/08/12 08:35:30;;;;;;;4.10;3.80;;;31.40;41.40;;;;;;20770;6822;119845;-71
2023/08/12 08:37:56;;;;;;;3.87;3.57;;;31.30;41.40;;;;;;20782;6822;118091;-71
2023/08/12 08:40:22;;;;;;;5.83;4.20;;;31.60;42.00;;;;;;20576;6822;309530;-71
2023/08/12 08:42:48;;;;;;;4.55;4.15;;;31.60;41.30;;;;;;20543;6822;336095;-72
2023/08/12 08:45:14;;;;;;;4.20;3.90;;;32.00;40.20;;;;;;20573;6822;278040;-71
2023/08/12 08:47:39;;;;;;;4.30;4.00;;;32.30;39.70;;;;;;20574;6822;282929;-71
2023/08/12 08:50:05;;;;;;;6.20;4.20;;;32.40;39.60;;;;;;20776;6822;117125;-71
2023/08/12 08:52:30;;;;;;;4.62;4.05;;;32.30;40.10;;;;;;20560;6822;341740;-71
2023/08/12 08:54:56;;;;;;;4.05;3.75;;;32.10;39.80;;;;;;20529;6822;309943;-71
2023/08/12 08:57:21;;;;;;;4.27;3.83;;;32.20;39.90;;;;;;20779;6822;117359;-71
2023/08/12 08:59:47;;;;;;;5.53;3.80;;;32.10;40.10;;;;;;20567;6822;312387;-71
2023/08/12 09:02:16;;;;;;;4.20;3.90;;;32.40;40.30;;;;;;20582;6822;281185;-71
2023/08/12 09:04:41;;;;;;;7.32;3.83;;;32.90;39.70;;;;;;20573;6822;336848;-71
2023/08/12 09:07:07;;;;;;;4.07;3.65;;;33.40;39.00;;;;;;20552;6822;277957;-72
2023/08/12 09:09:32;;;;;;;6.80;3.83;;;33.80;37.50;;;;;;20792;6822;123333;-71
2023/08/12 09:11:58;;;;;;;4.03;3.60;;;33.70;37.80;;;;;;20564;6822;283769;-72
2023/08/12 09:14:23;;;;;;;4.83;3.83;;;33.70;37.70;;;;;;20785;6822;119217;-71
2023/08/12 09:16:50;;;;;;;3.93;3.53;;;33.00;39.00;;;;;;20759;6822;126974;-71
2023/08/12 09:19:15;;;;;;;4.20;3.97;;;33.00;39.00;;;;;;20565;6822;306984;-71
2023/08/12 09:21:41;;;;;;;4.97;3.83;;;32.90;39.00;;;;;;20572;6820;336447;-71
2023/08/12 09:24:08;;;;;;;3.90;3.60;;;33.00;38.90;;;;;;20776;6822;120095;-70
2023/08/12 09:26:33;;;;;;;4.03;3.70;;;32.50;40.00;;;;;;20784;6822;116993;-71
2023/08/12 09:28:58;;;;;;;4.03;3.73;;;32.50;40.00;;;;;;20762;6822;117424;-71
2023/08/12 09:31:24;;;;;;;4.07;3.60;;;32.40;40.20;;;;;;20786;6822;122474;-71
2023/08/12 09:33:49;;;;;;;4.00;3.80;;;32.40;40.20;;;;;;20566;6822;306551;-70
2023/08/12 09:36:15;;;;;;;4.22;3.95;;;32.50;40.00;;;;;;20566;6822;336540;-71
2023/08/12 09:38:40;;;;;;;5.68;3.80;;;32.90;39.30;;;;;;20566;6822;307411;-71
2023/08/12 09:41:06;;;;;;;4.23;3.57;;;33.10;39.10;;;;;;20766;6822;117055;-71
2023/08/12 09:43:32;;;;;;;3.77;3.47;;;32.90;39.30;;;;;;20784;6822;118157;-71
2023/08/12 09:46:01;;;;;;;4.70;3.33;;;32.90;39.30;;;;;;20777;6822;117196;-71
2023/08/12 09:48:27;;;;;;;3.97;3.77;;;32.70;39.90;;;;;;20583;6822;278507;-71
2023/08/12 09:50:52;;;;;;;4.13;3.83;;;33.00;40.10;;;;;;20765;6822;117282;-72
2023/08/12 09:53:18;;;;;;;4.73;3.73;;;33.20;39.30;;;;;;20779;6822;117259;-71
2023/08/12 09:55:45;;;;;;;6.53;3.93;;;33.00;39.20;;;;;;20790;6822;122883;-71
2023/08/12 09:58:11;;;;;;;4.30;3.90;;;33.00;39.20;;;;;;20565;6822;301326;-71
2023/08/12 10:00:37;;;;;;;4.30;3.90;;;33.50;39.60;;;;;;20560;6822;277914;-72
2023/08/12 10:03:03;;;;;;;4.67;3.80;;;33.40;39.50;;;;;;20548;6822;307844;-71
2023/08/12 10:05:28;;;;;;;4.30;4.10;;;33.60;38.60;;;;;;20782;6822;117496;-72
2023/08/12 10:07:55;;;;;;;4.00;3.80;;;33.40;39.80;;;;;;20779;6822;117022;-71
2023/08/12 10:10:20;;;;;;;4.03;3.73;;;33.40;39.50;;;;;;20793;6822;117046;-71
2023/08/12 10:12:46;;;;;;;3.70;3.50;;;33.10;40.10;;;;;;20770;6822;122979;-73
2023/08/12 10:15:12;;;;;;;4.15;3.85;;;33.00;41.50;;;;;;20573;6822;336549;-71
2023/08/12 10:17:38;;;;;;;5.23;3.93;;;33.00;41.50;;;;;;20578;6822;279031;-71
2023/08/12 10:20:04;;;;;;;4.50;4.10;;;33.30;40.50;;;;;;20779;6822;117626;-71
2023/08/12 10:22:29;;;;;;;4.37;4.07;;;33.30;40.70;;;;;;20783;6822;117080;-71
2023/08/12 10:24:54;;;;;;;4.12;3.65;;;33.10;40.90;;;;;;20549;6822;308797;-71
2023/08/12 10:27:20;;;;;;;4.27;3.83;;;33.10;40.70;;;;;;20783;6822;120241;-71
2023/08/12 10:29:46;;;;;;;4.93;3.60;;;33.10;40.70;;;;;;20790;6822;120580;-71
2023/08/12 10:32:11;;;;;;;4.30;3.97;;;33.00;40.70;;;;;;20569;6822;314564;-71
2023/08/12 10:34:37;;;;;;;4.10;3.80;;;33.10;41.10;;;;;;20789;6821;117504;-71
2023/08/12 10:37:02;;;;;;;3.53;3.33;;;33.20;40.70;;;;;;20769;6822;121242;-71
2023/08/12 10:39:31;;;;;;;3.80;3.50;;;33.00;40.40;;;;;;20789;6822;122487;-71
2023/08/12 10:41:56;;;;;;;3.83;3.63;;;32.90;40.20;;;;;;20786;6822;120104;-71
2023/08/12 10:44:26;;;;;;;13.53;3.73;;;32.50;40.80;;;;;;20791;6822;116951;-71
2023/08/12 10:46:51;;;;;;;5.53;3.53;;;32.50;40.80;;;;;;20758;6822;121234;-71
2023/08/12 10:49:17;;;;;;;3.90;3.60;;;32.40;41.10;;;;;;20582;6822;277659;-71
2023/08/12 10:51:52;;;;;;;3.43;3.33;;;32.70;41.50;;;;;;20786;6822;116887;-71
2023/08/12 10:54:21;;;;;;;3.90;3.70;;;32.90;41.20;;;;;;20568;6822;307638;-71
2023/08/12 10:57:02;;;;;;;5.57;3.50;;;33.50;40.20;;;;;;20772;6822;146683;-72
2023/08/12 10:59:45;;;;;;;3.60;3.40;;;33.80;40.40;;;;;;20209;6822;277887;-71
2023/08/12 11:02:32;;;;;;;3.60;3.30;;;34.50;38.40;;;;;;20790;6822;119247;-72
2023/08/12 11:04:56;;;;;;;3.23;3.10;;;34.50;38.30;;;;;;20550;6822;280944;-72
2023/08/12 11:07:22;;;;;;;3.62;3.33;;;34.80;37.50;;;;;;20567;6822;307556;-71
2023/08/12 11:09:52;;;;;;;4.85;3.12;;;35.30;37.70;;;;;;20759;6822;119678;-71
2023/08/12 11:12:17;;;;;;;3.70;3.50;;;35.20;37.60;;;;;;20782;6822;117519;-71
2023/08/12 11:14:49;;;;;;;3.53;3.22;;;35.20;37.50;;;;;;20578;6822;307438;-71
2023/08/12 11:17:15;;;;;;;3.27;2.97;;;35.20;35.70;;;;;;20770;6822;119220;-69
2023/08/12 11:19:41;;;;;;;5.05;3.50;;;35.20;35.70;;;;;;20577;6822;344526;-70
2023/08/12 11:22:06;;;;;;;3.70;3.40;;;35.30;36.20;;;;;;20777;6822;117454;-69
2023/08/12 11:24:33;;;;;;;5.10;3.70;;;35.40;36.30;;;;;;20780;6822;117144;-69
2023/08/12 11:26:57;;;;;;;3.60;3.40;;;35.30;36.70;;;;;;20549;6822;309640;-70
2023/08/12 11:29:23;;;;;;;3.27;3.10;;;35.40;37.00;;;;;;20796;6822;119474;-71
2023/08/12 11:31:49;;;;;;;3.43;3.23;;;35.40;36.60;;;;;;20801;6822;118306;-72
2023/08/12 11:34:14;;;;;;;4.25;3.42;;;35.20;36.90;;;;;;20796;6822;119582;-72
2023/08/12 11:36:40;;;;;;;3.37;3.17;;;35.10;37.00;;;;;;20790;6822;117574;-72
2023/08/12 11:39:05;;;;;;;6.10;3.30;;;35.00;37.30;;;;;;20555;6822;320987;-72
2023/08/12 11:41:31;;;;;;;2.97;2.77;;;35.20;37.00;;;;;;20795;6822;117199;-70
2023/08/12 11:43:56;;;;;;;2.77;2.50;;;35.50;36.90;;;;;;20771;6822;118620;-70
2023/08/12 11:46:22;;;;;;;4.07;2.67;;;35.60;36.50;;;;;;20584;6821;282034;-70
2023/08/12 11:48:47;;;;;;;2.60;2.40;;;35.90;34.30;;;;;;20561;6822;336166;-71
2023/08/12 11:51:13;;;;;;;2.87;2.60;;;36.30;31.30;;;;;;20573;6822;307057;-71
2023/08/12 11:53:39;;;;;;;2.53;2.43;;;36.60;30.30;;;;;;20791;6822;117093;-71
2023/08/12 11:56:04;;;;;;;3.08;2.40;;;36.50;31.20;;;;;;20582;6822;277087;-70
2023/08/12 11:58:30;;;;;;;3.43;2.57;;;36.30;30.80;;;;;;20806;6822;119633;-71
2023/08/12 12:00:55;;;;;;;2.50;2.30;;;36.00;31.20;;;;;;20762;6822;118931;-71
2023/08/12 12:03:21;;;;;;;2.80;2.60;;;35.70;32.30;;;;;;20589;6822;307499;-71
2023/08/12 12:05:47;;;;;;;2.90;2.50;;;35.60;32.90;;;;;;20799;6822;117034;-70
2023/08/12 12:08:12;;;;;;;3.47;2.93;;;35.50;32.50;;;;;;20568;6822;307319;-70
2023/08/12 12:10:37;;;;;;;4.77;3.10;;;35.50;32.50;;;;;;20786;6822;123329;-71
2023/08/12 12:13:04;;;;;;;2.92;2.70;;;35.20;33.10;;;;;;20559;6822;307886;-70
2023/08/12 12:15:29;;;;;;;3.83;2.50;;;35.20;32.40;;;;;;20571;6822;302763;-70
2023/08/12 12:17:56;;;;;;;2.50;2.30;;;35.20;32.00;;;;;;20574;6822;276926;-71
2023/08/12 12:20:21;;;;;;;2.77;2.57;;;35.20;32.00;;;;;;20577;6822;307819;-71
2023/08/12 12:22:47;;;;;;;2.80;2.60;;;35.20;32.10;;;;;;20558;6822;278058;-71
2023/08/12 12:25:12;;;;;;;2.80;2.60;;;35.20;32.70;;;;;;20785;6822;117413;-71
2023/08/12 12:27:39;;;;;;;4.30;2.83;;;34.50;32.80;;;;;;20570;6822;337859;-70
2023/08/12 12:30:04;;;;;;;3.70;2.63;;;34.50;32.90;;;;;;20783;6822;119448;-70
2023/08/12 12:32:30;;;;;;;8.67;2.63;;;34.10;33.40;;;;;;20762;6822;119648;-70